createdAt,value
2022-11-15T00:02:29.832Z,81.46
2022-11-15T00:05:36.621Z,81.40
2022-11-15T00:08:39.250Z,81.42
2022-11-15T00:11:41.814Z,81.33
2022-11-15T00:14:44.594Z,80.79
2022-11-15T00:17:50.483Z,80.61
2022-11-15T00:20:53.097Z,80.47
2022-11-15T00:23:55.718Z,80.53
2022-11-15T00:26:58.333Z,80.13
2022-11-15T00:30:00.951Z,80.10
2022-11-15T00:33:05.539Z,80.11
2022-11-15T00:36:10.610Z,80.50
2022-11-15T00:39:13.300Z,80.62
2022-11-15T00:42:15.877Z,80.62
2022-11-15T00:45:18.665Z,80.52
2022-11-15T00:48:22.698Z,80.76
2022-11-15T00:51:25.419Z,80.67
2022-11-15T00:54:27.974Z,81.37
2022-11-15T00:57:30.538Z,81.82
2022-11-15T01:00:33.152Z,82.18
2022-11-15T01:03:37.431Z,81.88
2022-11-15T01:06:40.111Z,82.25
2022-11-15T01:09:42.652Z,82.09
2022-11-15T01:12:45.251Z,82.36
2022-11-15T01:15:47.837Z,82.95
2022-11-15T01:18:52.694Z,83.80
2022-11-15T01:21:55.288Z,84.18
2022-11-15T01:24:57.995Z,84.90
2022-11-15T01:28:00.571Z,85.43
2022-11-15T01:31:04.658Z,85.84
2022-11-15T01:34:08.622Z,86.10
2022-11-15T01:37:11.352Z,86.54
2022-11-15T01:40:13.946Z,86.37
2022-11-15T01:43:27.499Z,86.96
2022-11-15T01:46:32.851Z,86.79
2022-11-15T01:49:37.890Z,86.74
2022-11-15T01:52:41.430Z,86.50
2022-11-15T01:55:44.135Z,87.35
2022-11-15T01:58:47.393Z,87.60
2022-11-15T02:01:50.091Z,87.33
2022-11-15T02:04:54.029Z,87.25
2022-11-15T02:07:56.626Z,86.42
2022-11-15T02:10:59.246Z,85.10
2022-11-15T02:14:03.024Z,84.50
2022-11-15T02:17:15.285Z,84.37
2022-11-15T02:20:38.375Z,83.85
2022-11-15T02:24:18.478Z,84.12
2022-11-15T02:27:58.944Z,83.53
2022-11-15T02:31:06.202Z,83.62
2022-11-15T02:34:14.111Z,82.99
2022-11-15T02:37:19.355Z,83.33
2022-11-15T02:40:30.704Z,84.14
2022-11-15T02:43:56.428Z,83.61
2022-11-15T02:47:18.739Z,83.96
2022-11-15T02:50:23.887Z,83.82
2022-11-15T02:53:27.142Z,84.13
2022-11-15T02:56:29.882Z,83.71
2022-11-15T02:59:55.398Z,84.41
2022-11-15T03:03:25.617Z,84.57
2022-11-15T03:06:33.906Z,85.15
2022-11-15T03:09:37.565Z,86.31
2022-11-15T03:12:45.961Z,85.63
2022-11-15T03:15:53.023Z,85.91
2022-11-15T03:19:00.902Z,86.18
2022-11-15T03:22:06.503Z,86.39
2022-11-15T03:25:11.217Z,86.70
2022-11-15T03:28:17.333Z,86.57
2022-11-15T03:31:39.510Z,86.55
2022-11-15T03:34:45.898Z,86.34
2022-11-15T03:37:52.813Z,86.95
2022-11-15T03:40:58.470Z,86.73
2022-11-15T03:44:06.676Z,86.57
2022-11-15T03:47:12.123Z,86.42
2022-11-15T03:50:19.279Z,86.49
2022-11-15T03:53:21.828Z,86.46
2022-11-15T03:56:24.414Z,86.31
2022-11-15T03:59:27.065Z,86.76
2022-11-15T04:02:30.199Z,86.74
2022-11-15T04:05:34.361Z,85.91
2022-11-15T04:08:36.864Z,85.30
2022-11-15T04:11:39.399Z,85.21
2022-11-15T04:15:02.306Z,85.54
2022-11-15T04:18:05.015Z,85.37
2022-11-15T04:21:27.460Z,85.82
2022-11-15T04:24:30.114Z,85.20
2022-11-15T04:27:32.758Z,84.84
2022-11-15T04:30:35.325Z,84.33
2022-11-15T04:33:37.885Z,83.85
2022-11-15T04:36:59.269Z,83.96
2022-11-15T04:40:01.944Z,84.51
2022-11-15T04:43:04.576Z,84.87
2022-11-15T04:46:07.189Z,85.01
2022-11-15T04:49:09.784Z,86.31
2022-11-15T04:52:13.675Z,86.83
2022-11-15T04:55:16.577Z,87.53
2022-11-15T04:58:19.298Z,88.26
2022-11-15T05:01:21.902Z,88.24
2022-11-15T05:04:23.574Z,88.19
2022-11-15T05:07:27.576Z,87.66
2022-11-15T05:10:30.367Z,87.69
2022-11-15T05:13:33.289Z,86.86
2022-11-15T05:16:36.468Z,86.38
2022-11-15T05:19:39.458Z,86.68
2022-11-15T05:22:43.544Z,87.88
2022-11-15T05:25:46.112Z,87.88
2022-11-15T05:28:48.848Z,88.25
2022-11-15T05:31:51.500Z,88.77
2022-11-15T05:34:54.202Z,88.36
2022-11-15T05:37:58.446Z,88.00
2022-11-15T05:41:01.695Z,87.00
2022-11-15T05:44:07.503Z,86.69
2022-11-15T05:47:11.328Z,86.98
2022-11-15T05:50:15.079Z,86.47
2022-11-15T05:53:19.808Z,85.89
2022-11-15T05:56:22.966Z,86.10
2022-11-15T05:59:25.841Z,85.63
2022-11-15T06:02:28.969Z,85.71
2022-11-15T06:05:31.854Z,86.25
2022-11-15T06:08:35.807Z,85.57
2022-11-15T06:11:38.395Z,85.97
2022-11-15T06:14:40.942Z,85.44
2022-11-15T06:17:43.542Z,85.09
2022-11-15T06:20:46.172Z,84.26
2022-11-15T06:23:50.176Z,84.65
2022-11-15T06:26:54.626Z,84.90
2022-11-15T06:29:57.221Z,84.48
2022-11-15T06:33:03.751Z,85.01
2022-11-15T06:36:09.232Z,84.22
2022-11-15T06:39:16.690Z,84.20
2022-11-15T06:42:19.252Z,83.74
2022-11-15T06:45:21.868Z,83.69
2022-11-15T06:48:24.759Z,83.44
2022-11-15T06:51:27.316Z,83.98
2022-11-15T06:54:31.496Z,83.41
2022-11-15T06:57:35.400Z,82.71
2022-11-15T07:00:38.320Z,82.86
2022-11-15T07:03:42.200Z,82.76
2022-11-15T07:06:45.274Z,81.80
2022-11-15T07:09:49.465Z,81.19
2022-11-15T07:12:52.238Z,80.16
2022-11-15T07:15:55.088Z,79.25
2022-11-15T07:18:57.938Z,80.01
2022-11-15T07:22:00.605Z,79.12
2022-11-15T07:25:05.397Z,78.87
2022-11-15T07:28:08.210Z,78.25
2022-11-15T07:31:11.307Z,76.33
2022-11-15T07:34:13.979Z,76.22
2022-11-15T07:37:17.899Z,74.96
2022-11-15T07:40:21.850Z,73.76
2022-11-15T07:43:24.432Z,73.22
2022-11-15T07:46:27.128Z,71.53
2022-11-15T07:49:29.803Z,71.05
2022-11-15T07:52:32.414Z,69.84
2022-11-15T07:55:36.401Z,67.62
2022-11-15T07:58:39.107Z,66.49
2022-11-15T08:01:42.384Z,65.70
2022-11-15T08:04:45.029Z,65.52
2022-11-15T08:07:52.651Z,63.26
2022-11-15T08:10:57.034Z,62.81
2022-11-15T08:14:00.288Z,63.02
2022-11-15T08:17:03.108Z,63.79
2022-11-15T08:20:06.309Z,64.07
2022-11-15T08:23:09.986Z,64.33
2022-11-15T08:26:13.964Z,65.21
2022-11-15T08:29:16.887Z,65.68
2022-11-15T08:32:20.284Z,65.56
2022-11-15T08:35:28.657Z,66.07
2022-11-15T08:38:32.641Z,66.66
2022-11-15T08:41:39.245Z,67.27
2022-11-15T08:44:42.070Z,67.25
2022-11-15T08:47:47.415Z,67.50
2022-11-15T08:50:56.280Z,66.43
2022-11-15T08:53:58.861Z,65.92
2022-11-15T08:57:02.828Z,64.62
2022-11-15T09:00:06.622Z,63.29
2022-11-15T09:03:10.260Z,62.04
2022-11-15T09:06:12.950Z,60.23
2022-11-15T09:09:15.558Z,59.35
2022-11-15T09:12:19.522Z,58.79
2022-11-15T09:15:22.214Z,57.95
2022-11-15T09:18:25.001Z,56.95
2022-11-15T09:21:27.767Z,56.26
2022-11-15T09:24:30.464Z,55.44
2022-11-15T09:27:34.425Z,54.55
2022-11-15T09:30:37.206Z,53.94
2022-11-15T09:33:39.899Z,53.54
2022-11-15T09:36:42.573Z,52.72
2022-11-15T09:39:45.465Z,52.11
2022-11-15T09:42:59.051Z,52.19
2022-11-15T09:46:11.145Z,52.19
2022-11-15T09:49:16.189Z,52.34
2022-11-15T09:52:19.829Z,52.42
2022-11-15T09:55:32.700Z,51.71
2022-11-15T09:58:40.334Z,50.88
2022-11-15T10:01:48.429Z,50.05
2022-11-15T10:04:51.672Z,48.67
2022-11-15T10:08:00.795Z,48.23
2022-11-15T10:11:35.617Z,49.43
2022-11-15T10:14:33.209Z,49.46
2022-11-15T10:17:51.590Z,49.63
2022-11-15T10:20:58.343Z,49.42
2022-11-15T10:24:01.059Z,49.05
2022-11-15T10:27:03.917Z,48.95
2022-11-15T10:30:13.309Z,48.54
2022-11-15T10:33:25.374Z,49.07
2022-11-15T10:36:28.151Z,48.72
2022-11-15T10:39:31.731Z,49.23
2022-11-15T10:42:34.543Z,49.38
2022-11-15T10:45:39.573Z,49.40
2022-11-15T10:48:42.595Z,49.48
2022-11-15T10:51:47.859Z,49.34
2022-11-15T10:54:59.948Z,48.57
2022-11-15T10:58:06.785Z,49.70
2022-11-15T11:01:18.924Z,50.03
2022-11-15T11:04:21.935Z,51.44
2022-11-15T11:07:26.564Z,51.69
2022-11-15T11:10:50.273Z,51.08
2022-11-15T11:13:52.594Z,51.67
2022-11-15T11:17:03.492Z,51.85
2022-11-15T11:20:12.068Z,51.05
2022-11-15T11:23:27.379Z,50.65
2022-11-15T11:26:41.079Z,50.47
2022-11-15T11:29:47.222Z,50.95
2022-11-15T11:33:00.578Z,50.06
2022-11-15T11:36:16.077Z,49.91
2022-11-15T11:39:28.807Z,50.41
2022-11-15T11:42:38.356Z,49.54
2022-11-15T11:45:55.424Z,48.88
2022-11-15T11:49:03.839Z,48.96
2022-11-15T11:52:11.757Z,48.79
2022-11-15T11:55:16.833Z,48.84
2022-11-15T11:58:22.165Z,49.41
2022-11-15T12:01:26.951Z,49.30
2022-11-15T12:04:32.889Z,49.36
2022-11-15T12:07:37.129Z,49.64
2022-11-15T12:10:39.964Z,48.87
2022-11-15T12:13:42.896Z,47.41
2022-11-15T12:16:45.537Z,47.06
2022-11-15T12:19:49.641Z,47.84
2022-11-15T12:22:56.441Z,48.42
2022-11-15T12:26:03.376Z,48.75
2022-11-15T12:29:11.625Z,49.57
2022-11-15T12:32:21.191Z,49.61
2022-11-15T12:35:30.136Z,50.88
2022-11-15T12:38:56.134Z,51.45
2022-11-15T12:42:46.611Z,52.45
2022-11-15T12:45:49.422Z,52.59
2022-11-15T12:48:57.355Z,53.03
2022-11-15T12:52:11.010Z,53.05
2022-11-15T12:55:33.903Z,52.60
2022-11-15T12:58:44.076Z,52.81
2022-11-15T13:02:02.445Z,52.62
2022-11-15T13:05:56.830Z,53.47
2022-11-15T13:09:00.923Z,53.62
2022-11-15T13:12:04.859Z,54.54
2022-11-15T13:15:43.058Z,54.41
2022-11-15T13:18:55.384Z,54.52
2022-11-15T13:22:16.018Z,54.96
2022-11-15T13:25:21.567Z,54.64
2022-11-15T13:28:30.543Z,54.84
2022-11-15T13:31:38.246Z,54.55
2022-11-15T13:34:56.504Z,54.51
2022-11-15T13:38:06.462Z,54.09
2022-11-15T13:41:22.584Z,55.36
2022-11-15T13:44:27.126Z,55.52
2022-11-15T13:47:31.067Z,56.15
2022-11-15T13:50:36.672Z,56.72
2022-11-15T13:53:42.068Z,56.39
2022-11-15T13:56:48.132Z,56.51
2022-11-15T13:59:52.843Z,57.26
2022-11-15T14:02:56.776Z,58.02
2022-11-15T14:06:08.580Z,58.60
2022-11-15T14:09:36.356Z,59.98
2022-11-15T14:12:40.867Z,60.76
2022-11-15T14:15:43.850Z,61.38
2022-11-15T14:18:49.031Z,62.03
2022-11-15T14:22:15.001Z,62.75
2022-11-15T14:25:21.193Z,63.07
2022-11-15T14:28:34.498Z,63.41
2022-11-15T14:31:42.573Z,63.27
2022-11-15T14:34:46.485Z,63.61
2022-11-15T14:37:49.735Z,63.69
2022-11-15T14:40:52.606Z,63.03
2022-11-15T14:43:56.558Z,62.68
2022-11-15T14:46:59.179Z,61.99
2022-11-15T14:50:01.861Z,62.71
2022-11-15T14:53:05.279Z,62.64
2022-11-15T14:56:07.910Z,62.25
2022-11-15T14:59:11.894Z,61.58
2022-11-15T15:02:19.177Z,61.70
2022-11-15T15:05:24.385Z,61.37
2022-11-15T15:08:27.055Z,61.48
2022-11-15T15:11:31.746Z,62.05
2022-11-15T15:14:35.767Z,62.46
2022-11-15T15:17:38.592Z,63.12
2022-11-15T15:20:42.370Z,64.37
2022-11-15T15:23:44.999Z,65.03
2022-11-15T15:26:47.574Z,65.13
2022-11-15T15:29:51.511Z,64.60
2022-11-15T15:32:54.890Z,63.04
2022-11-15T15:35:57.613Z,61.71
2022-11-15T15:39:00.360Z,61.37
2022-11-15T15:42:03.033Z,60.37
2022-11-15T15:45:08.298Z,60.86
2022-11-15T15:48:13.586Z,60.54
2022-11-15T15:51:20.420Z,60.67
2022-11-15T15:54:23.492Z,60.46
2022-11-15T15:57:26.160Z,59.89
2022-11-15T16:00:30.392Z,59.42
2022-11-15T16:03:33.190Z,58.86
2022-11-15T16:06:40.351Z,59.65
2022-11-15T16:10:00.760Z,59.70
2022-11-15T16:13:03.551Z,58.85
2022-11-15T16:16:11.483Z,58.19
2022-11-15T16:19:14.310Z,58.59
2022-11-15T16:22:17.020Z,58.62
2022-11-15T16:25:19.712Z,58.65
2022-11-15T16:28:24.814Z,58.11
2022-11-15T16:31:28.771Z,57.83
2022-11-15T16:34:34.888Z,57.75
2022-11-15T16:37:40.856Z,58.07
2022-11-15T16:40:43.448Z,58.76
2022-11-15T16:43:47.612Z,59.11
2022-11-15T16:46:52.753Z,58.65
2022-11-15T16:49:55.426Z,58.60
2022-11-15T16:52:59.400Z,58.33
2022-11-15T16:56:02.107Z,58.53
2022-11-15T16:59:04.775Z,58.05
2022-11-15T17:02:12.015Z,58.04
2022-11-15T17:05:19.881Z,58.04
2022-11-15T17:08:24.418Z,57.90
2022-11-15T17:11:27.024Z,58.27
2022-11-15T17:14:29.698Z,58.33
2022-11-15T17:17:34.161Z,58.07
2022-11-15T17:20:36.847Z,58.77
2022-11-15T17:23:39.736Z,58.45
2022-11-15T17:26:42.878Z,58.74
2022-11-15T17:29:45.531Z,58.91
2022-11-15T17:32:49.855Z,59.20
2022-11-15T17:35:57.166Z,59.46
2022-11-15T17:39:00.313Z,59.93
2022-11-15T17:42:03.199Z,60.54
2022-11-15T17:45:09.920Z,60.80
2022-11-15T17:48:14.584Z,60.54
2022-11-15T17:51:18.760Z,61.19
2022-11-15T17:54:21.371Z,61.04
2022-11-15T17:57:24.239Z,61.34
2022-11-15T18:00:26.865Z,61.62
2022-11-15T18:03:31.337Z,62.13
2022-11-15T18:06:35.498Z,62.36
2022-11-15T18:09:38.796Z,62.65
2022-11-15T18:12:41.558Z,62.86
2022-11-15T18:15:44.145Z,63.35
2022-11-15T18:18:49.181Z,63.39
2022-11-15T18:21:57.937Z,63.77
2022-11-15T18:25:00.558Z,63.63
2022-11-15T18:28:03.137Z,64.03
2022-11-15T18:31:14.061Z,64.28
2022-11-15T18:34:18.573Z,64.01
2022-11-15T18:37:21.171Z,64.17
2022-11-15T18:40:23.787Z,64.61
2022-11-15T18:43:26.621Z,64.62
2022-11-15T18:46:30.757Z,64.42
2022-11-15T18:49:35.472Z,64.55
2022-11-15T18:52:38.117Z,64.62
2022-11-15T18:55:40.867Z,65.21
2022-11-15T18:58:46.482Z,65.63
2022-11-15T19:01:50.108Z,66.58
2022-11-15T19:04:54.143Z,67.04
2022-11-15T19:07:56.840Z,67.86
2022-11-15T19:11:04.001Z,68.56
2022-11-15T19:14:08.224Z,69.54
2022-11-15T19:17:11.018Z,69.42
2022-11-15T19:20:15.204Z,70.18
2022-11-15T19:23:17.823Z,71.20
2022-11-15T19:26:21.578Z,72.87
2022-11-15T19:29:24.522Z,72.76
2022-11-15T19:32:28.794Z,73.20
2022-11-15T19:35:32.830Z,73.15
2022-11-15T19:38:36.779Z,73.82
2022-11-15T19:41:42.209Z,73.72
2022-11-15T19:44:44.884Z,75.29
2022-11-15T19:47:47.621Z,75.33
2022-11-15T19:50:51.715Z,75.54
2022-11-15T19:53:55.838Z,75.73
2022-11-15T19:56:58.485Z,76.28
2022-11-15T20:00:06.863Z,76.20
2022-11-15T20:03:10.043Z,75.71
2022-11-15T20:06:16.832Z,75.45
2022-11-15T20:09:20.490Z,75.12
2022-11-15T20:12:23.627Z,74.73
2022-11-15T20:15:26.450Z,75.94
2022-11-15T20:18:30.679Z,76.27
2022-11-15T20:21:35.368Z,76.79
2022-11-15T20:24:38.114Z,77.19
2022-11-15T20:27:40.886Z,77.13
2022-11-15T20:30:44.300Z,76.78
2022-11-15T20:33:47.393Z,76.98
2022-11-15T20:36:51.446Z,77.55
2022-11-15T20:39:54.179Z,78.16
2022-11-15T20:42:56.998Z,78.25
2022-11-15T20:45:59.756Z,78.56
2022-11-15T20:49:02.463Z,78.15
2022-11-15T20:52:06.704Z,78.46
2022-11-15T20:55:10.592Z,77.96
2022-11-15T20:58:13.313Z,78.56
2022-11-15T21:01:17.748Z,79.44
2022-11-15T21:04:20.779Z,78.86
2022-11-15T21:07:25.020Z,78.78
2022-11-15T21:10:45.200Z,78.62
2022-11-15T21:13:47.890Z,78.19
2022-11-15T21:16:50.740Z,78.01
2022-11-15T21:19:53.869Z,78.37
2022-11-15T21:22:58.064Z,78.05
2022-11-15T21:26:00.647Z,77.85
2022-11-15T21:29:03.541Z,77.93
2022-11-15T21:32:08.173Z,78.25
2022-11-15T21:38:38.791Z,79.01
2022-11-15T21:41:41.396Z,79.13
2022-11-15T21:44:44.027Z,78.05
2022-11-15T21:47:46.971Z,78.69
2022-11-15T21:50:56.261Z,78.54
2022-11-15T21:54:00.660Z,77.67
2022-11-15T21:57:03.392Z,78.00
2022-11-15T22:00:38.839Z,78.29
2022-11-15T22:03:41.912Z,77.97
2022-11-15T22:06:44.627Z,77.24
2022-11-15T22:09:48.565Z,76.56
2022-11-15T22:12:51.180Z,76.97
2022-11-15T22:15:54.138Z,77.21
2022-11-15T22:18:57.090Z,77.59
2022-11-15T22:22:00.845Z,76.78
2022-11-15T22:25:05.995Z,76.55
2022-11-15T22:28:08.707Z,76.40
2022-11-15T22:31:11.942Z,76.51
2022-11-15T22:34:14.657Z,76.58
2022-11-15T22:37:21.303Z,76.37
2022-11-15T22:40:25.607Z,75.55
2022-11-15T22:43:28.532Z,76.22
2022-11-15T22:46:31.332Z,76.82
2022-11-15T22:49:34.016Z,77.15
2022-11-15T22:52:37.100Z,77.29
2022-11-15T22:55:41.343Z,78.32
2022-11-15T22:58:44.106Z,79.90
2022-11-15T23:01:46.835Z,80.10
2022-11-15T23:04:49.535Z,80.90
2022-11-15T23:07:52.234Z,81.44
2022-11-15T23:11:13.659Z,81.50
2022-11-15T23:14:16.541Z,81.82
2022-11-15T23:17:19.219Z,82.65
2022-11-15T23:20:41.958Z,82.96
2022-11-15T23:23:43.510Z,83.54
2022-11-15T23:26:49.339Z,82.81
2022-11-15T23:30:08.978Z,83.23
2022-11-15T23:33:32.537Z,83.97
2022-11-15T23:36:35.244Z,84.31
2022-11-15T23:39:38.174Z,84.02
2022-11-15T23:42:42.231Z,84.01
2022-11-15T23:45:44.925Z,84.19
2022-11-15T23:48:47.803Z,85.18
2022-11-15T23:51:50.520Z,84.81
2022-11-15T23:54:53.271Z,84.62
2022-11-15T23:57:57.500Z,85.35
